Time;durP1;ratioP1;P1;durP2;ratioP2;P2;SDS_P1;SDS_P2;PMS_P1;PMS_P2;Temp;Humidity;BMP_temperature;BMP_pressure;BME280_temperature;BME280_humidity;BME280_pressure;Samples;Min_cycle;Max_cycle;Signal;HPM_P1;HPM_P2
2022/07/15 00:02:12;;;;;;;6.85;2.47;;;21.90;44.10;;;;;;4994883;28;20038;-73
2022/07/15 00:04:38;;;;;;;4.20;2.28;;;21.90;44.10;;;;;;5010530;28;20022;-73
2022/07/15 00:07:04;;;;;;;4.72;2.55;;;21.90;43.70;;;;;;5010445;28;20026;-74
2022/07/15 00:12:15;;;;;;;4.10;2.28;;;21.80;44.80;;;;;;5012040;28;20547;-76
2022/07/15 00:14:40;;;;;;;6.07;2.60;;;21.70;45.40;;;;;;5010953;28;20030;-76
2022/07/15 00:17:07;;;;;;;4.80;2.40;;;21.70;46.20;;;;;;5010650;28;20037;-73
2022/07/15 00:19:34;;;;;;;5.63;2.90;;;21.60;46.60;;;;;;5010532;28;20378;-75
2022/07/15 00:21:59;;;;;;;6.78;2.55;;;21.60;47.40;;;;;;5010578;28;20030;-74
2022/07/15 00:24:25;;;;;;;5.28;2.28;;;21.40;48.00;;;;;;5010758;28;20595;-74
2022/07/15 00:26:50;;;;;;;3.63;2.30;;;21.30;48.90;;;;;;5010175;28;20089;-74
2022/07/15 00:29:16;;;;;;;4.40;2.60;;;21.10;49.20;;;;;;5010500;28;20062;-74
2022/07/15 00:31:42;;;;;;;4.60;2.30;;;21.00;49.50;;;;;;5010475;28;20114;-74
2022/07/15 00:34:08;;;;;;;5.72;2.83;;;21.00;50.00;;;;;;5010177;28;20049;-76
2022/07/15 00:36:33;;;;;;;3.90;2.45;;;20.90;50.50;;;;;;5010022;28;20041;-74
2022/07/15 00:38:59;;;;;;;5.75;2.60;;;20.90;50.90;;;;;;5010404;28;20026;-73
2022/07/15 00:41:24;;;;;;;3.53;2.20;;;20.80;51.10;;;;;;5010465;28;20041;-74
2022/07/15 00:43:50;;;;;;;5.35;2.88;;;20.70;51.50;;;;;;5010540;28;20535;-75
2022/07/15 00:46:18;;;;;;;6.40;2.85;;;20.60;51.90;;;;;;5010055;28;20034;-73
2022/07/15 00:48:45;;;;;;;3.92;2.78;;;20.60;52.30;;;;;;5010627;28;20443;-74
2022/07/15 00:51:10;;;;;;;3.67;2.80;;;20.50;52.60;;;;;;5010642;28;20022;-73
2022/07/15 00:53:38;;;;;;;5.15;2.75;;;20.50;52.70;;;;;;5010188;28;20470;-73
2022/07/15 00:56:07;;;;;;;4.80;2.80;;;20.40;52.80;;;;;;5009807;28;20340;-82
2022/07/15 00:58:36;;;;;;;6.43;2.97;;;20.30;53.00;;;;;;5010435;28;20048;-81
2022/07/15 01:01:03;;;;;;;4.68;2.80;;;20.20;53.50;;;;;;5010179;28;20494;-82
2022/07/15 01:03:31;;;;;;;5.32;2.75;;;20.00;53.90;;;;;;5010237;28;20026;-82
2022/07/15 01:05:57;;;;;;;5.18;2.83;;;20.10;53.90;;;;;;5009983;28;20026;-83
2022/07/15 01:08:23;;;;;;;5.82;2.90;;;20.10;53.80;;;;;;5009895;28;20027;-77
2022/07/15 01:10:49;;;;;;;7.60;3.10;;;20.00;53.90;;;;;;5010296;28;20063;-83
2022/07/15 01:13:16;;;;;;;5.07;3.05;;;19.90;54.10;;;;;;5010129;28;20362;-82
2022/07/15 01:15:42;;;;;;;7.70;3.20;;;19.90;54.30;;;;;;5009965;28;20037;-83
2022/07/15 01:18:07;;;;;;;6.65;2.95;;;19.90;54.50;;;;;;5009906;28;20022;-83
2022/07/15 01:20:33;;;;;;;3.70;3.03;;;19.80;54.70;;;;;;5010006;28;20030;-82
2022/07/15 01:22:59;;;;;;;4.30;2.47;;;19.70;54.90;;;;;;5009859;28;20026;-82
2022/07/15 01:25:26;;;;;;;3.50;2.75;;;19.70;55.20;;;;;;5009858;28;20070;-81
2022/07/15 01:27:51;;;;;;;6.15;2.92;;;19.70;55.40;;;;;;5009815;28;20053;-81
2022/07/15 01:30:17;;;;;;;5.45;2.83;;;19.70;55.30;;;;;;5009308;28;20110;-81
2022/07/15 01:32:43;;;;;;;6.47;2.53;;;19.50;55.40;;;;;;5008443;28;20048;-82
2022/07/15 01:35:08;;;;;;;6.57;2.55;;;19.50;55.60;;;;;;5009663;28;20026;-82
2022/07/15 01:37:34;;;;;;;4.00;2.63;;;19.50;55.80;;;;;;5009827;28;20045;-82
2022/07/15 01:40:00;;;;;;;5.72;2.38;;;19.40;55.80;;;;;;5009567;28;20363;-82
2022/07/15 01:42:25;;;;;;;3.60;3.03;;;19.40;55.90;;;;;;5009893;28;20026;-81
2022/07/15 01:44:51;;;;;;;5.28;3.05;;;19.30;56.40;;;;;;5009510;28;20018;-82
2022/07/15 01:47:16;;;;;;;7.25;3.03;;;19.30;56.20;;;;;;5009200;28;20516;-81
2022/07/15 01:49:42;;;;;;;6.75;3.15;;;19.30;56.10;;;;;;5009650;28;20106;-81
2022/07/15 01:52:09;;;;;;;3.72;2.40;;;19.30;56.20;;;;;;5009529;28;20374;-80
2022/07/15 01:54:35;;;;;;;4.50;2.70;;;19.20;56.30;;;;;;5009716;28;20527;-81
2022/07/15 01:57:01;;;;;;;7.10;3.40;;;19.20;56.40;;;;;;5009222;28;20033;-82
2022/07/15 01:59:27;;;;;;;3.67;3.03;;;19.20;56.50;;;;;;5009247;28;20470;-80
2022/07/15 02:01:54;;;;;;;4.18;2.70;;;19.20;56.40;;;;;;5008965;28;20037;-81
2022/07/15 02:04:21;;;;;;;4.80;2.83;;;19.10;56.50;;;;;;5009540;28;20117;-82
2022/07/15 02:06:47;;;;;;;6.32;2.85;;;19.10;57.10;;;;;;5008819;28;20153;-82
2022/07/15 02:09:13;;;;;;;3.22;2.78;;;19.00;56.90;;;;;;5008987;28;20174;-81
2022/07/15 02:11:38;;;;;;;5.20;2.90;;;19.00;57.00;;;;;;5009128;28;20545;-81
2022/07/15 02:14:04;;;;;;;5.97;2.92;;;18.90;57.10;;;;;;5008991;28;20036;-82
2022/07/15 02:16:31;;;;;;;4.18;2.58;;;18.90;57.30;;;;;;5008812;28;20017;-77
2022/07/15 02:18:57;;;;;;;4.88;2.47;;;18.90;57.20;;;;;;5009245;28;20033;-81
2022/07/15 02:21:23;;;;;;;6.70;3.10;;;18.90;56.90;;;;;;5009138;28;20095;-79
2022/07/15 02:23:48;;;;;;;5.60;2.83;;;18.90;56.70;;;;;;5009224;28;20022;-82
2022/07/15 02:26:14;;;;;;;5.53;2.55;;;19.00;56.60;;;;;;5008810;28;20474;-79
2022/07/15 02:28:40;;;;;;;4.18;2.63;;;18.90;56.60;;;;;;5008505;28;20026;-78
2022/07/15 02:31:06;;;;;;;4.97;2.50;;;18.90;56.60;;;;;;5008583;28;20133;-82
2022/07/15 02:33:32;;;;;;;5.35;3.20;;;18.90;56.70;;;;;;5008645;28;20542;-81
2022/07/15 02:35:57;;;;;;;4.22;2.97;;;18.90;57.10;;;;;;5008625;28;20471;-81
2022/07/15 02:38:23;;;;;;;4.93;2.72;;;18.80;57.00;;;;;;5008581;28;20026;-82
2022/07/15 02:40:49;;;;;;;4.25;2.70;;;18.90;56.80;;;;;;5008730;28;20030;-79
2022/07/15 02:43:14;;;;;;;3.65;2.35;;;18.90;56.10;;;;;;5008776;28;20022;-81
2022/07/15 02:45:41;;;;;;;5.82;3.20;;;19.00;55.40;;;;;;5008347;28;20026;-81
2022/07/15 02:48:07;;;;;;;9.73;3.20;;;18.80;55.60;;;;;;5008576;28;20030;-82
2022/07/15 02:50:33;;;;;;;6.50;2.88;;;18.80;56.00;;;;;;5008716;28;20026;-81
2022/07/15 02:53:00;;;;;;;5.25;2.40;;;18.80;56.30;;;;;;5008613;28;20033;-81
2022/07/15 02:55:26;;;;;;;2.63;2.33;;;18.80;56.20;;;;;;5008357;28;20022;-81
2022/07/15 02:57:52;;;;;;;4.68;2.72;;;18.80;56.20;;;;;;5008363;28;20451;-82
2022/07/15 03:00:19;;;;;;;5.18;3.25;;;18.80;56.80;;;;;;5008853;28;20197;-80
2022/07/15 03:02:46;;;;;;;3.22;2.70;;;18.70;57.00;;;;;;5008525;28;20044;-80
2022/07/15 03:05:12;;;;;;;8.23;3.38;;;18.70;57.40;;;;;;5008389;28;20457;-81
2022/07/15 03:07:38;;;;;;;5.70;3.38;;;18.60;57.50;;;;;;5008235;28;20029;-77
2022/07/15 03:10:05;;;;;;;5.43;3.05;;;18.60;57.60;;;;;;5008296;28;20048;-81
2022/07/15 03:12:31;;;;;;;5.28;3.03;;;18.60;57.30;;;;;;5008256;28;20033;-82
2022/07/15 03:14:57;;;;;;;6.28;2.88;;;18.60;57.20;;;;;;5008033;28;20097;-83
2022/07/15 03:17:23;;;;;;;6.75;3.25;;;18.60;57.30;;;;;;5008474;28;20033;-82
2022/07/15 03:19:49;;;;;;;6.78;3.10;;;18.60;57.30;;;;;;5009414;28;20056;-78
2022/07/15 03:22:14;;;;;;;5.72;3.05;;;18.60;57.50;;;;;;5011420;28;20494;-80
2022/07/15 03:24:40;;;;;;;4.03;2.60;;;18.50;57.50;;;;;;5011377;28;20022;-80
2022/07/15 03:27:05;;;;;;;5.10;3.10;;;18.50;57.60;;;;;;5011368;28;20041;-80
2022/07/15 03:29:31;;;;;;;6.63;3.00;;;18.40;57.60;;;;;;5011295;28;20032;-81
2022/07/15 03:31:57;;;;;;;5.03;2.95;;;18.30;58.10;;;;;;5011322;28;20041;-82
2022/07/15 03:34:26;;;;;;;3.63;2.92;;;18.20;58.50;;;;;;5011497;28;20050;-79
2022/07/15 03:36:53;;;;;;;6.10;3.13;;;18.20;58.60;;;;;;5011324;28;20514;-80
2022/07/15 03:39:18;;;;;;;5.57;3.17;;;18.20;58.60;;;;;;5011201;28;20034;-79
2022/07/15 03:41:44;;;;;;;4.88;2.83;;;18.20;58.60;;;;;;5010938;28;20175;-81
2022/07/15 03:44:10;;;;;;;4.72;2.70;;;18.10;58.30;;;;;;5010959;28;20087;-81
2022/07/15 03:46:36;;;;;;;3.80;2.40;;;18.10;58.10;;;;;;5011148;28;20030;-81
2022/07/15 03:49:02;;;;;;;3.92;3.00;;;18.10;58.30;;;;;;5011622;28;20462;-82
2022/07/15 03:51:33;;;;;;;5.18;2.75;;;18.00;57.80;;;;;;5011338;28;20034;-82
2022/07/15 03:54:00;;;;;;;38.47;4.80;;;18.00;58.10;;;;;;5011297;28;20030;-77
2022/07/15 03:56:38;;;;;;;9.15;2.95;;;18.00;58.80;;;;;;5011366;28;20018;-90
2022/07/15 03:59:04;;;;;;;9.43;3.05;;;18.20;59.00;;;;;;5011808;28;20079;-86
2022/07/15 04:01:30;;;;;;;4.57;2.88;;;18.20;58.40;;;;;;5011201;28;20037;-85
2022/07/15 04:03:56;;;;;;;5.85;2.92;;;18.30;57.90;;;;;;5011956;28;20086;-88
2022/07/15 04:06:48;;;;;;;18.20;5.95;;;18.40;57.10;;;;;;5015420;28;20030;-90
2022/07/15 04:09:33;;;;;;;9.27;3.67;;;18.40;57.00;;;;;;5012246;28;20071;-86
2022/07/15 04:11:59;;;;;;;4.97;2.60;;;18.50;56.70;;;;;;5011749;28;20045;-80
2022/07/15 04:14:24;;;;;;;4.93;2.92;;;18.60;56.30;;;;;;5010609;28;20022;-73
2022/07/15 04:16:50;;;;;;;6.70;3.13;;;18.60;56.10;;;;;;5010575;28;20029;-73
2022/07/15 04:19:16;;;;;;;5.90;2.42;;;18.40;56.30;;;;;;5010576;28;20433;-74
2022/07/15 04:21:41;;;;;;;7.68;3.00;;;18.30;56.70;;;;;;5010314;28;20037;-73
2022/07/15 04:24:07;;;;;;;6.18;3.33;;;18.20;56.80;;;;;;5010527;28;20022;-72
2022/07/15 04:26:32;;;;;;;7.13;3.20;;;18.20;57.00;;;;;;5010593;28;20129;-73
2022/07/15 04:28:58;;;;;;;5.78;2.90;;;18.10;57.20;;;;;;5010549;28;20036;-72
2022/07/15 04:31:23;;;;;;;5.10;2.92;;;18.00;57.10;;;;;;5010371;28;20492;-73
2022/07/15 04:33:49;;;;;;;4.55;2.97;;;17.90;57.80;;;;;;5010383;28;20046;-72
2022/07/15 04:36:15;;;;;;;7.53;2.90;;;17.90;57.00;;;;;;5010597;28;20462;-72
2022/07/15 04:38:40;;;;;;;5.28;2.47;;;18.00;56.80;;;;;;5010548;28;20040;-72
2022/07/15 04:41:06;;;;;;;5.00;2.53;;;18.10;56.50;;;;;;5010440;28;20041;-73
2022/07/15 04:43:31;;;;;;;4.10;2.35;;;18.20;57.00;;;;;;5010527;28;20026;-72
2022/07/15 04:45:57;;;;;;;3.90;2.20;;;18.20;55.90;;;;;;5010202;28;20033;-73
2022/07/15 04:51:07;;;;;;;4.70;2.53;;;18.40;55.40;;;;;;5011574;28;20048;-73
2022/07/15 04:53:32;;;;;;;5.00;2.85;;;18.50;55.30;;;;;;5010262;28;20466;-73
2022/07/15 04:55:58;;;;;;;3.85;2.30;;;18.50;55.00;;;;;;5010145;28;20486;-73
2022/07/15 04:58:23;;;;;;;4.32;2.40;;;18.50;54.90;;;;;;5010103;28;20177;-72
2022/07/15 05:00:49;;;;;;;3.75;2.42;;;18.60;55.00;;;;;;5011198;28;20045;-73
2022/07/15 05:03:15;;;;;;;8.75;2.75;;;18.80;54.90;;;;;;5009810;28;20022;-73
2022/07/15 05:05:41;;;;;;;5.03;2.88;;;18.80;54.40;;;;;;5010337;28;20037;-73
2022/07/15 05:08:07;;;;;;;5.82;2.38;;;19.00;53.50;;;;;;5010024;28;20034;-73
2022/07/15 05:10:32;;;;;;;4.47;2.10;;;19.00;53.50;;;;;;5009720;28;20124;-73
2022/07/15 05:12:58;;;;;;;6.18;2.45;;;19.00;53.00;;;;;;5009892;28;20071;-73
2022/07/15 05:15:24;;;;;;;3.85;1.90;;;19.00;52.80;;;;;;5009785;28;20029;-73
2022/07/15 05:17:50;;;;;;;4.63;2.33;;;19.10;52.70;;;;;;5009687;28;20026;-72
2022/07/15 05:20:16;;;;;;;6.68;2.50;;;19.20;52.20;;;;;;5009737;28;20394;-73
2022/07/15 05:22:41;;;;;;;5.85;2.65;;;19.30;52.10;;;;;;5009616;28;20396;-73
2022/07/15 05:25:07;;;;;;;7.93;3.10;;;19.40;52.30;;;;;;5009992;28;20037;-74
2022/07/15 05:27:33;;;;;;;6.78;2.45;;;19.40;52.10;;;;;;5009948;28;20036;-74
2022/07/15 05:29:58;;;;;;;12.23;2.65;;;19.50;51.90;;;;;;5009419;28;20151;-74
2022/07/15 05:32:24;;;;;;;4.63;2.50;;;19.50;51.70;;;;;;5010606;28;20057;-73
2022/07/15 05:34:50;;;;;;;4.10;2.38;;;19.50;51.60;;;;;;5009454;28;20026;-74
2022/07/15 05:37:15;;;;;;;5.47;2.40;;;19.50;51.10;;;;;;5009472;28;20503;-74
2022/07/15 05:39:53;;;;;;;4.90;2.70;;;19.50;50.40;;;;;;5009069;28;20431;-74
2022/07/15 05:42:24;;;;;;;6.28;2.90;;;19.60;50.00;;;;;;5008583;28;20026;-75
2022/07/15 05:44:49;;;;;;;6.60;2.85;;;19.50;49.60;;;;;;5008995;28;20474;-75
2022/07/15 05:47:15;;;;;;;3.53;2.47;;;19.60;49.60;;;;;;5009286;28;20068;-75
2022/07/15 05:49:41;;;;;;;5.75;2.33;;;19.70;49.60;;;;;;5009285;28;20033;-74
2022/07/15 05:52:07;;;;;;;6.50;2.60;;;19.70;49.00;;;;;;5009116;28;20030;-74
2022/07/15 05:54:33;;;;;;;3.08;2.33;;;19.80;48.80;;;;;;5008812;28;20549;-74
2022/07/15 05:56:58;;;;;;;7.07;3.03;;;20.00;48.80;;;;;;5008868;28;20116;-74
2022/07/15 05:59:24;;;;;;;7.18;2.53;;;20.10;48.50;;;;;;5008934;28;20060;-74
2022/07/15 06:01:50;;;;;;;4.70;2.63;;;20.20;48.10;;;;;;5008855;28;20038;-74
2022/07/15 06:04:15;;;;;;;6.30;2.65;;;20.30;47.50;;;;;;5009057;28;20022;-75
2022/07/15 06:06:41;;;;;;;9.25;3.58;;;20.30;47.30;;;;;;5008952;28;20065;-75
2022/07/15 06:09:06;;;;;;;4.80;2.25;;;20.20;47.40;;;;;;5009111;28;20029;-75
2022/07/15 06:11:33;;;;;;;7.57;2.55;;;20.20;47.60;;;;;;5008745;28;20030;-74
2022/07/15 06:14:00;;;;;;;5.30;3.38;;;20.10;48.30;;;;;;5008873;28;20367;-75
2022/07/15 06:16:25;;;;;;;4.25;2.47;;;20.10;48.30;;;;;;5009123;28;20026;-75
2022/07/15 06:18:51;;;;;;;4.72;2.65;;;20.20;48.00;;;;;;5008934;28;20029;-75
2022/07/15 06:21:17;;;;;;;5.95;3.17;;;20.40;47.70;;;;;;5008413;28;20061;-75
2022/07/15 06:23:42;;;;;;;10.25;3.83;;;20.50;47.00;;;;;;5009115;28;20025;-75
2022/07/15 06:26:08;;;;;;;4.05;2.60;;;20.70;46.90;;;;;;5008731;28;20065;-75
2022/07/15 06:28:33;;;;;;;4.68;2.40;;;20.90;46.60;;;;;;5008450;28;20026;-75
2022/07/15 06:30:59;;;;;;;9.18;2.83;;;21.20;45.90;;;;;;4992435;28;20030;-75
2022/07/15 06:33:25;;;;;;;3.42;2.05;;;21.40;44.70;;;;;;5008544;28;20450;-75
2022/07/15 06:35:50;;;;;;;6.00;2.60;;;21.50;44.30;;;;;;5008646;28;20095;-75
2022/07/15 06:38:16;;;;;;;10.65;3.40;;;21.50;44.10;;;;;;5008186;28;20026;-75
2022/07/15 06:40:42;;;;;;;5.90;2.47;;;21.50;43.60;;;;;;5008226;28;20026;-74
2022/07/15 06:43:07;;;;;;;3.90;2.83;;;21.50;43.40;;;;;;5008118;28;20037;-75
2022/07/15 06:45:33;;;;;;;3.30;2.20;;;21.50;44.10;;;;;;5008470;28;20026;-75
2022/07/15 06:47:59;;;;;;;2.83;2.17;;;21.60;44.00;;;;;;5008490;28;20030;-75
2022/07/15 06:50:25;;;;;;;5.22;2.50;;;21.70;43.90;;;;;;5008269;28;20151;-75
2022/07/15 06:52:51;;;;;;;8.38;2.55;;;21.90;42.70;;;;;;5008096;28;20018;-75
2022/07/15 06:55:17;;;;;;;4.80;2.08;;;21.80;41.10;;;;;;5010235;28;20499;-75
2022/07/15 06:57:42;;;;;;;3.58;1.92;;;21.90;40.70;;;;;;5011655;28;20026;-74
2022/07/15 07:00:11;;;;;;;12.82;2.83;;;22.00;42.00;;;;;;5011503;28;20390;-75
2022/07/15 07:02:37;;;;;;;9.18;2.55;;;22.00;42.90;;;;;;5011647;28;20504;-75
2022/07/15 07:05:04;;;;;;;3.42;2.20;;;22.00;43.20;;;;;;5011633;28;20438;-75
2022/07/15 07:07:30;;;;;;;6.50;2.97;;;22.10;43.50;;;;;;5011525;28;20026;-75
2022/07/15 07:09:55;;;;;;;4.45;2.30;;;22.20;42.50;;;;;;5011916;28;20374;-75
2022/07/15 07:12:21;;;;;;;7.53;2.85;;;22.30;42.60;;;;;;5011825;28;20113;-75
2022/07/15 07:14:47;;;;;;;6.47;2.53;;;22.30;42.50;;;;;;5011467;28;20029;-74
2022/07/15 07:17:12;;;;;;;6.30;2.50;;;22.30;41.10;;;;;;5011698;28;20098;-75
2022/07/15 07:19:38;;;;;;;7.25;2.25;;;22.40;40.90;;;;;;5011612;28;20106;-76
2022/07/15 07:22:04;;;;;;;6.38;2.30;;;22.50;40.90;;;;;;5011628;28;20042;-75
2022/07/15 07:24:30;;;;;;;6.80;2.40;;;22.60;40.90;;;;;;5011192;28;20044;-75
2022/07/15 07:26:55;;;;;;;4.80;1.83;;;22.70;39.90;;;;;;5011698;28;20022;-75
2022/07/15 07:29:23;;;;;;;10.25;3.40;;;22.90;39.50;;;;;;5011255;28;20386;-75
2022/07/15 07:31:50;;;;;;;11.68;2.20;;;23.00;38.90;;;;;;5011248;28;20029;-74
2022/07/15 07:34:17;;;;;;;4.97;2.53;;;23.00;38.70;;;;;;5011401;28;20050;-75
2022/07/15 07:36:43;;;;;;;12.40;3.25;;;23.00;38.80;;;;;;5011219;28;20059;-75
2022/07/15 07:39:09;;;;;;;10.63;3.28;;;23.00;38.90;;;;;;5011134;28;20049;-74
2022/07/15 07:41:34;;;;;;;9.30;2.78;;;23.10;38.90;;;;;;5011125;28;20038;-74
2022/07/15 07:44:00;;;;;;;6.88;3.30;;;23.00;39.10;;;;;;5011172;28;20028;-74
2022/07/15 07:46:25;;;;;;;6.65;2.60;;;23.00;39.30;;;;;;5011219;28;20493;-74
2022/07/15 07:48:51;;;;;;;4.53;2.15;;;23.00;39.90;;;;;;5010943;28;20088;-75
2022/07/15 07:51:17;;;;;;;5.05;2.17;;;23.20;39.70;;;;;;4994674;28;20034;-74
2022/07/15 07:53:43;;;;;;;5.13;2.38;;;23.30;39.40;;;;;;5011018;28;20030;-75
2022/07/15 07:56:09;;;;;;;4.90;2.55;;;23.40;40.10;;;;;;5012264;28;20105;-75
2022/07/15 07:58:35;;;;;;;5.50;2.85;;;23.30;40.20;;;;;;5011082;28;20108;-74
2022/07/15 08:01:01;;;;;;;5.85;3.10;;;23.40;40.40;;;;;;5010884;28;20029;-74
2022/07/15 08:03:29;;;;;;;3.70;2.40;;;23.60;39.40;;;;;;5011165;28;20022;-74
2022/07/15 08:05:55;;;;;;;6.78;2.70;;;23.80;39.30;;;;;;5010325;28;20026;-75
2022/07/15 08:08:22;;;;;;;5.07;2.35;;;23.80;39.80;;;;;;5012456;28;20149;-74
2022/07/15 08:10:51;;;;;;;7.47;2.38;;;23.70;39.40;;;;;;5010517;28;20022;-75
2022/07/15 08:13:18;;;;;;;5.18;2.83;;;23.80;39.90;;;;;;5010589;28;20078;-75
2022/07/15 08:15:45;;;;;;;4.38;2.15;;;23.90;40.00;;;;;;5010229;28;20033;-74
2022/07/15 08:18:11;;;;;;;4.68;2.35;;;24.10;39.20;;;;;;5010343;28;20479;-75
2022/07/15 08:20:37;;;;;;;7.13;2.40;;;24.30;37.90;;;;;;5010316;28;20136;-74
2022/07/15 08:23:04;;;;;;;4.50;2.25;;;24.30;36.60;;;;;;5010528;28;20163;-74
2022/07/15 08:25:33;;;;;;;6.35;2.50;;;24.30;36.20;;;;;;5009957;28;20482;-75
2022/07/15 08:27:59;;;;;;;5.32;2.50;;;23.90;37.00;;;;;;5010557;28;20021;-75
2022/07/15 08:30:26;;;;;;;7.03;2.42;;;23.90;37.50;;;;;;5010878;28;20045;-74
2022/07/15 08:32:52;;;;;;;8.25;3.15;;;23.70;37.00;;;;;;5010301;28;20050;-76
2022/07/15 08:35:18;;;;;;;4.70;2.35;;;23.80;37.50;;;;;;5010253;28;20100;-74
2022/07/15 08:37:44;;;;;;;6.78;2.42;;;23.80;37.40;;;;;;5010082;28;20034;-73
2022/07/15 08:40:10;;;;;;;7.25;2.33;;;23.80;36.50;;;;;;5010080;28;20091;-74
2022/07/15 08:42:43;;;;;;;4.70;2.15;;;24.00;36.60;;;;;;5010315;28;20030;-73
2022/07/15 08:45:10;;;;;;;4.78;2.03;;;24.10;36.00;;;;;;5010314;28;20018;-73
2022/07/15 08:47:38;;;;;;;4.80;2.45;;;24.00;35.90;;;;;;5012839;28;20075;-73
2022/07/15 08:50:05;;;;;;;5.38;2.63;;;23.90;35.00;;;;;;5018565;28;20386;-74
2022/07/15 08:52:34;;;;;;;6.72;2.15;;;23.70;35.40;;;;;;5012585;28;20026;-72
2022/07/15 08:55:00;;;;;;;4.22;2.00;;;23.70;36.00;;;;;;5011247;28;20022;-74
2022/07/15 08:57:26;;;;;;;7.90;2.50;;;23.80;35.20;;;;;;5010548;28;20034;-74
2022/07/15 08:59:52;;;;;;;5.75;2.50;;;23.90;34.50;;;;;;5010078;28;20450;-74
2022/07/15 09:02:21;;;;;;;4.20;2.10;;;24.20;33.60;;;;;;5009937;28;20033;-74
2022/07/15 09:05:23;;;;;;;4.57;2.35;;;24.40;32.40;;;;;;5010071;28;20117;-74
2022/07/15 09:08:16;;;;;;;6.43;2.38;;;24.60;30.70;;;;;;5010327;28;20026;-74
2022/07/15 09:10:41;;;;;;;6.03;2.28;;;24.60;31.40;;;;;;5009861;28;20018;-74
2022/07/15 09:13:08;;;;;;;6.13;2.38;;;24.60;29.90;;;;;;5009424;28;20037;-74
2022/07/15 09:15:39;;;;;;;7.65;2.60;;;24.40;30.40;;;;;;5009970;28;20108;-74
2022/07/15 09:18:14;;;;;;;7.47;2.10;;;24.30;32.60;;;;;;5009225;28;20022;-74
2022/07/15 09:20:41;;;;;;;6.63;2.75;;;24.30;32.70;;;;;;5009400;28;20399;-73
2022/07/15 09:23:09;;;;;;;4.32;2.45;;;24.40;32.40;;;;;;5009625;28;20065;-73
2022/07/15 09:25:36;;;;;;;2.95;2.15;;;24.60;32.90;;;;;;5009791;28;20038;-73
2022/07/15 09:28:07;;;;;;;5.63;2.30;;;24.80;33.20;;;;;;5009757;28;20347;-73
2022/07/15 09:33:35;;;;;;;3.60;2.20;;;25.20;31.50;;;;;;5010731;28;20084;-76
2022/07/15 09:36:05;;;;;;;2.42;1.70;;;25.20;30.80;;;;;;5009449;28;20029;-75
2022/07/15 09:38:40;;;;;;;4.57;2.15;;;25.50;32.80;;;;;;5009853;28;20026;-81
2022/07/15 09:41:07;;;;;;;4.68;2.17;;;25.80;31.70;;;;;;5009544;28;20066;-82
2022/07/15 09:43:55;;;;;;;4.45;2.25;;;26.00;32.20;;;;;;5009169;28;20037;-81
2022/07/15 09:46:22;;;;;;;5.30;2.15;;;26.30;30.60;;;;;;5009220;28;20478;-80
2022/07/15 09:48:51;;;;;;;6.35;2.47;;;26.60;29.60;;;;;;5009232;28;20026;-81
2022/07/15 09:51:20;;;;;;;9.95;2.47;;;26.40;29.70;;;;;;5009526;28;20117;-77
2022/07/15 09:53:45;;;;;;;5.13;2.33;;;26.00;30.80;;;;;;5009252;28;20489;-83
2022/07/15 09:56:21;;;;;;;6.57;2.40;;;25.90;30.30;;;;;;5008937;28;20034;-83
2022/07/15 09:58:47;;;;;;;7.10;2.42;;;25.80;30.90;;;;;;5009233;28;20058;-80
2022/07/15 10:01:13;;;;;;;5.13;2.20;;;25.60;31.70;;;;;;5009297;28;20037;-81
2022/07/15 10:03:39;;;;;;;6.90;2.42;;;25.50;31.50;;;;;;5008956;28;20030;-82
2022/07/15 10:06:05;;;;;;;7.60;2.58;;;25.50;31.90;;;;;;5009409;28;20026;-82
2022/07/15 10:08:33;;;;;;;3.88;2.22;;;25.60;31.10;;;;;;5008654;28;20034;-81
2022/07/15 10:10:59;;;;;;;6.97;2.55;;;25.60;31.20;;;;;;4990730;28;20026;-82
2022/07/15 10:13:35;;;;;;;5.40;2.90;;;25.80;31.40;;;;;;4991112;28;20387;-81
2022/07/15 10:16:27;;;;;;;5.32;2.63;;;26.10;31.20;;;;;;4990632;28;20038;-81
2022/07/15 10:19:15;;;;;;;6.03;2.53;;;26.50;30.60;;;;;;4990213;28;20098;-78
2022/07/15 10:22:01;;;;;;;4.03;2.53;;;26.60;29.20;;;;;;4989842;28;20042;-81
2022/07/15 10:24:49;;;;;;;4.90;2.30;;;26.50;28.90;;;;;;4990018;28;20114;-83
2022/07/15 10:27:27;;;;;;;6.05;2.55;;;26.60;29.90;;;;;;4990047;28;20121;-81
2022/07/15 10:29:55;;;;;;;5.88;2.40;;;26.50;30.10;;;;;;4989570;28;20049;-81
2022/07/15 10:32:20;;;;;;;7.82;2.50;;;26.60;30.40;;;;;;4989349;28;20459;-82
2022/07/15 10:34:48;;;;;;;4.88;2.60;;;26.60;29.80;;;;;;4989317;28;20057;-80
2022/07/15 10:37:14;;;;;;;4.07;2.53;;;26.90;29.60;;;;;;4989598;28;20528;-81
2022/07/15 10:39:53;;;;;;;3.58;2.28;;;26.80;29.90;;;;;;4989418;28;20030;-82
2022/07/15 10:42:20;;;;;;;4.50;2.55;;;26.90;28.50;;;;;;4987291;28;20031;-81
2022/07/15 10:45:03;;;;;;;15.25;2.10;;;26.60;28.60;;;;;;4989340;28;20034;-82
2022/07/15 10:47:29;;;;;;;4.18;2.30;;;26.90;28.70;;;;;;4989290;28;20026;-82
2022/07/15 10:49:55;;;;;;;6.60;2.05;;;27.20;28.60;;;;;;4988711;28;20038;-83
2022/07/15 10:52:26;;;;;;;8.05;2.58;;;27.50;28.40;;;;;;4989316;28;20403;-76
2022/07/15 10:54:55;;;;;;;7.13;2.38;;;27.50;28.20;;;;;;4989065;28;20018;-82
2022/07/15 10:57:44;;;;;;;5.95;2.58;;;27.40;29.10;;;;;;4989363;28;20033;-78
2022/07/15 11:00:30;;;;;;;4.38;2.33;;;27.80;28.60;;;;;;4990211;28;20027;-81
2022/07/15 11:03:21;;;;;;;4.78;2.22;;;28.40;27.20;;;;;;4989154;28;20030;-81
2022/07/15 11:05:57;;;;;;;6.30;2.47;;;28.60;25.80;;;;;;4988804;28;20027;-76
2022/07/15 11:08:34;;;;;;;4.55;2.50;;;28.40;25.90;;;;;;4989226;28;20026;-77
2022/07/15 11:11:15;;;;;;;7.65;2.60;;;28.00;25.70;;;;;;4989056;28;20022;-78
2022/07/15 11:13:46;;;;;;;3.50;2.35;;;27.20;26.70;;;;;;4988609;28;20443;-77
2022/07/15 11:16:14;;;;;;;4.00;2.45;;;27.10;27.60;;;;;;4988695;28;20022;-78
2022/07/15 11:18:57;;;;;;;7.82;2.58;;;27.20;28.20;;;;;;4989154;28;20144;-78
2022/07/15 11:21:24;;;;;;;5.90;2.67;;;26.80;27.50;;;;;;4988691;28;20054;-78
2022/07/15 11:23:51;;;;;;;4.25;2.25;;;26.90;27.10;;;;;;4989599;28;20066;-79
2022/07/15 11:26:18;;;;;;;12.57;2.70;;;27.00;27.10;;;;;;4988497;28;20332;-79
2022/07/15 11:28:55;;;;;;;4.75;2.35;;;27.10;26.10;;;;;;4988979;28;20075;-79
2022/07/15 11:31:22;;;;;;;3.15;2.22;;;27.00;26.50;;;;;;4989167;28;20106;-79
2022/07/15 11:33:52;;;;;;;9.48;2.78;;;27.30;26.40;;;;;;4990065;28;20113;-79
2022/07/15 11:36:21;;;;;;;5.35;2.25;;;27.40;26.20;;;;;;4988841;28;20060;-80
2022/07/15 11:38:47;;;;;;;4.57;2.20;;;27.30;26.40;;;;;;4990542;28;20034;-80
2022/07/15 11:44:32;;;;;;;5.15;2.33;;;27.60;26.60;;;;;;4998364;28;20037;-78
2022/07/15 11:46:59;;;;;;;4.43;2.30;;;27.50;25.10;;;;;;4992766;28;20046;-77
2022/07/15 11:49:41;;;;;;;6.13;2.03;;;27.70;25.00;;;;;;4993216;28;20123;-79
2022/07/15 11:52:09;;;;;;;4.90;2.15;;;28.00;25.20;;;;;;4992121;28;20420;-79
2022/07/15 11:54:36;;;;;;;6.53;2.85;;;28.10;25.00;;;;;;4991788;28;20050;-80
2022/07/15 11:57:08;;;;;;;7.68;2.40;;;28.20;24.30;;;;;;4992072;28;20061;-80
2022/07/15 11:59:35;;;;;;;3.08;2.13;;;28.40;24.40;;;;;;4991931;28;20057;-80
2022/07/15 12:02:12;;;;;;;10.32;2.15;;;28.10;23.80;;;;;;4991428;28;20035;-80
2022/07/15 12:04:39;;;;;;;2.28;1.90;;;27.70;24.40;;;;;;4991647;28;20034;-80
2022/07/15 12:07:07;;;;;;;2.95;2.38;;;27.30;25.00;;;;;;4991160;28;20034;-81
2022/07/15 12:09:43;;;;;;;6.70;2.42;;;27.10;25.80;;;;;;4991987;28;20033;-80
2022/07/15 12:12:09;;;;;;;6.07;2.05;;;27.30;26.10;;;;;;4991480;28;20026;-80
2022/07/15 12:14:35;;;;;;;3.75;2.10;;;27.70;24.80;;;;;;4990796;28;20118;-80
2022/07/15 12:17:04;;;;;;;7.85;2.55;;;27.90;24.20;;;;;;4991095;28;20037;-80
2022/07/15 12:19:33;;;;;;;7.20;2.40;;;28.30;23.80;;;;;;4991389;28;20065;-80
2022/07/15 12:22:04;;;;;;;3.90;1.92;;;28.20;23.70;;;;;;4991866;28;20106;-81
2022/07/15 12:24:38;;;;;;;3.75;2.00;;;28.30;23.60;;;;;;4991944;28;20023;-77
2022/07/15 12:27:04;;;;;;;4.40;2.03;;;28.80;22.10;;;;;;4991327;28;20023;-76
2022/07/15 12:29:33;;;;;;;4.72;2.10;;;28.90;20.80;;;;;;4991365;28;20150;-76
2022/07/15 12:32:04;;;;;;;5.18;2.17;;;28.90;22.80;;;;;;4992707;28;20067;-76
2022/07/15 12:34:55;;;;;;;7.95;2.47;;;28.10;24.50;;;;;;4991264;28;20058;-78
2022/07/15 12:37:30;;;;;;;8.13;2.45;;;27.70;25.20;;;;;;4992581;28;20402;-79
2022/07/15 12:40:12;;;;;;;3.13;1.98;;;28.00;25.10;;;;;;4999724;28;20026;-84
2022/07/15 12:42:50;;;;;;;6.20;2.60;;;28.40;25.90;;;;;;4996959;28;20034;-81
2022/07/15 12:45:27;;;;;;;5.88;2.67;;;28.90;23.20;;;;;;5003360;28;20029;-82
2022/07/15 12:47:57;;;;;;;2.17;1.77;;;29.20;22.00;;;;;;5015861;28;20018;-76
2022/07/15 12:50:22;;;;;;;3.63;2.20;;;29.30;21.30;;;;;;5010912;28;20055;-78
2022/07/15 12:52:48;;;;;;;7.03;2.05;;;29.40;21.20;;;;;;5016505;28;20488;-77
2022/07/15 12:55:19;;;;;;;5.40;2.08;;;29.20;21.30;;;;;;5018221;28;20029;-77
2022/07/15 12:57:46;;;;;;;5.25;2.45;;;28.80;21.50;;;;;;5018250;28;20367;-78
2022/07/15 13:00:20;;;;;;;6.90;2.35;;;28.60;22.30;;;;;;5016323;28;20478;-79
2022/07/15 13:03:03;;;;;;;4.97;2.40;;;28.00;23.50;;;;;;5013498;28;20079;-80